sensor_id;sensor_type;location;lat;lon;timestamp;P1;durP1;ratioP1;P2;durP2;ratioP2
37655;SDS011;23498;50.958;3.124;2022-09-09T00:00:59;7.50;;;2.88;;
37655;SDS011;23498;50.958;3.124;2022-09-09T00:05:59;9.57;;;2.28;;
37655;SDS011;23498;50.958;3.124;2022-09-09T00:08:36;6.07;;;2.30;;
37655;SDS011;23498;50.958;3.124;2022-09-09T00:11:07;4.85;;;2.13;;
37655;SDS011;23498;50.958;3.124;2022-09-09T00:13:38;6.32;;;2.50;;
37655;SDS011;23498;50.958;3.124;2022-09-09T00:19:02;6.40;;;2.15;;
37655;SDS011;23498;50.958;3.124;2022-09-09T00:21:40;7.03;;;2.30;;
37655;SDS011;23498;50.958;3.124;2022-09-09T00:24:11;4.38;;;1.85;;
37655;SDS011;23498;50.958;3.124;2022-09-09T00:26:45;4.47;;;1.80;;
37655;SDS011;23498;50.958;3.124;2022-09-09T00:29:55;6.00;;;2.03;;
37655;SDS011;23498;50.958;3.124;2022-09-09T00:32:13;7.78;;;2.05;;
37655;SDS011;23498;50.958;3.124;2022-09-09T00:34:46;6.70;;;1.95;;
37655;SDS011;23498;50.958;3.124;2022-09-09T00:37:13;4.15;;;1.92;;
37655;SDS011;23498;50.958;3.124;2022-09-09T00:39:41;6.13;;;2.15;;
37655;SDS011;23498;50.958;3.124;2022-09-09T00:42:18;6.75;;;2.30;;
37655;SDS011;23498;50.958;3.124;2022-09-09T00:55:21;9.95;;;2.10;;
37655;SDS011;23498;50.958;3.124;2022-09-09T00:57:52;6.15;;;1.85;;
37655;SDS011;23498;50.958;3.124;2022-09-09T01:05:48;6.35;;;2.28;;
37655;SDS011;23498;50.958;3.124;2022-09-09T01:08:30;6.00;;;2.10;;
37655;SDS011;23498;50.958;3.124;2022-09-09T01:11:00;6.55;;;1.95;;
37655;SDS011;23498;50.958;3.124;2022-09-09T01:13:34;6.85;;;2.03;;
37655;SDS011;23498;50.958;3.124;2022-09-09T01:16:04;6.30;;;1.95;;
37655;SDS011;23498;50.958;3.124;2022-09-09T01:18:32;8.95;;;2.35;;
37655;SDS011;23498;50.958;3.124;2022-09-09T01:26:34;11.13;;;2.20;;
37655;SDS011;23498;50.958;3.124;2022-09-09T01:29:01;8.00;;;2.47;;
37655;SDS011;23498;50.958;3.124;2022-09-09T01:31:31;8.75;;;2.80;;
37655;SDS011;23498;50.958;3.124;2022-09-09T01:33:58;10.27;;;2.97;;
37655;SDS011;23498;50.958;3.124;2022-09-09T01:36:25;8.95;;;2.63;;
37655;SDS011;23498;50.958;3.124;2022-09-09T01:38:52;7.05;;;2.60;;
37655;SDS011;23498;50.958;3.124;2022-09-09T01:41:18;8.45;;;2.92;;
37655;SDS011;23498;50.958;3.124;2022-09-09T01:43:44;9.52;;;3.10;;
37655;SDS011;23498;50.958;3.124;2022-09-09T01:46:10;8.82;;;2.60;;
37655;SDS011;23498;50.958;3.124;2022-09-09T01:48:39;10.50;;;2.88;;
37655;SDS011;23498;50.958;3.124;2022-09-09T01:51:07;7.00;;;2.40;;
37655;SDS011;23498;50.958;3.124;2022-09-09T01:53:35;9.40;;;2.50;;
37655;SDS011;23498;50.958;3.124;2022-09-09T02:01:06;7.53;;;2.75;;
37655;SDS011;23498;50.958;3.124;2022-09-09T02:03:34;6.80;;;1.80;;
37655;SDS011;23498;50.958;3.124;2022-09-09T02:08:46;7.60;;;2.03;;
37655;SDS011;23498;50.958;3.124;2022-09-09T02:11:15;9.23;;;2.33;;
37655;SDS011;23498;50.958;3.124;2022-09-09T02:13:42;7.82;;;2.33;;
37655;SDS011;23498;50.958;3.124;2022-09-09T02:16:18;7.38;;;2.10;;
37655;SDS011;23498;50.958;3.124;2022-09-09T02:18:51;9.43;;;2.20;;
37655;SDS011;23498;50.958;3.124;2022-09-09T02:21:18;7.18;;;1.95;;
37655;SDS011;23498;50.958;3.124;2022-09-09T02:23:44;9.73;;;2.20;;
37655;SDS011;23498;50.958;3.124;2022-09-09T02:26:12;4.43;;;1.83;;
37655;SDS011;23498;50.958;3.124;2022-09-09T02:28:44;6.35;;;2.03;;
37655;SDS011;23498;50.958;3.124;2022-09-09T02:31:11;8.05;;;2.40;;
37655;SDS011;23498;50.958;3.124;2022-09-09T02:33:40;6.13;;;2.53;;
37655;SDS011;23498;50.958;3.124;2022-09-09T02:36:07;10.65;;;2.10;;
37655;SDS011;23498;50.958;3.124;2022-09-09T02:38:35;10.38;;;2.63;;
37655;SDS011;23498;50.958;3.124;2022-09-09T02:41:02;7.32;;;2.10;;
37655;SDS011;23498;50.958;3.124;2022-09-09T02:43:32;8.20;;;2.40;;
37655;SDS011;23498;50.958;3.124;2022-09-09T02:48:41;13.27;;;2.58;;
37655;SDS011;23498;50.958;3.124;2022-09-09T02:56:21;10.85;;;3.53;;
37655;SDS011;23498;50.958;3.124;2022-09-09T02:58:52;13.18;;;2.95;;
37655;SDS011;23498;50.958;3.124;2022-09-09T03:01:17;8.48;;;2.50;;
37655;SDS011;23498;50.958;3.124;2022-09-09T03:03:43;8.43;;;3.05;;
37655;SDS011;23498;50.958;3.124;2022-09-09T03:06:11;8.68;;;3.03;;
37655;SDS011;23498;50.958;3.124;2022-09-09T03:08:37;9.13;;;2.70;;
37655;SDS011;23498;50.958;3.124;2022-09-09T03:11:03;12.43;;;2.67;;
37655;SDS011;23498;50.958;3.124;2022-09-09T03:13:29;10.30;;;2.83;;
37655;SDS011;23498;50.958;3.124;2022-09-09T03:15:55;12.23;;;3.08;;
37655;SDS011;23498;50.958;3.124;2022-09-09T03:18:21;8.07;;;2.15;;
37655;SDS011;23498;50.958;3.124;2022-09-09T03:20:48;9.63;;;2.95;;
37655;SDS011;23498;50.958;3.124;2022-09-09T03:23:14;12.68;;;3.10;;
37655;SDS011;23498;50.958;3.124;2022-09-09T03:25:46;10.93;;;2.75;;
37655;SDS011;23498;50.958;3.124;2022-09-09T03:28:12;6.70;;;2.60;;
37655;SDS011;23498;50.958;3.124;2022-09-09T03:30:38;11.25;;;2.65;;
37655;SDS011;23498;50.958;3.124;2022-09-09T03:33:04;10.35;;;2.58;;
37655;SDS011;23498;50.958;3.124;2022-09-09T03:35:30;13.15;;;3.05;;
37655;SDS011;23498;50.958;3.124;2022-09-09T03:37:56;10.07;;;2.55;;
37655;SDS011;23498;50.958;3.124;2022-09-09T03:40:22;10.13;;;2.90;;
37655;SDS011;23498;50.958;3.124;2022-09-09T03:42:48;11.82;;;3.08;;
37655;SDS011;23498;50.958;3.124;2022-09-09T03:45:14;11.27;;;2.90;;
37655;SDS011;23498;50.958;3.124;2022-09-09T03:47:40;10.35;;;2.85;;
37655;SDS011;23498;50.958;3.124;2022-09-09T03:50:06;10.43;;;2.95;;
37655;SDS011;23498;50.958;3.124;2022-09-09T03:52:37;8.70;;;2.72;;
37655;SDS011;23498;50.958;3.124;2022-09-09T03:55:04;9.32;;;2.83;;
37655;SDS011;23498;50.958;3.124;2022-09-09T03:57:31;13.13;;;3.30;;
37655;SDS011;23498;50.958;3.124;2022-09-09T03:59:59;12.65;;;3.80;;
37655;SDS011;23498;50.958;3.124;2022-09-09T04:02:26;12.88;;;3.78;;
37655;SDS011;23498;50.958;3.124;2022-09-09T04:04:51;12.13;;;3.33;;
37655;SDS011;23498;50.958;3.124;2022-09-09T04:07:17;13.27;;;3.55;;
37655;SDS011;23498;50.958;3.124;2022-09-09T04:09:43;9.27;;;3.40;;
37655;SDS011;23498;50.958;3.124;2022-09-09T04:12:09;12.65;;;3.67;;
37655;SDS011;23498;50.958;3.124;2022-09-09T04:14:38;17.35;;;3.50;;
37655;SDS011;23498;50.958;3.124;2022-09-09T04:17:04;12.68;;;3.33;;
37655;SDS011;23498;50.958;3.124;2022-09-09T04:19:31;13.73;;;3.72;;
37655;SDS011;23498;50.958;3.124;2022-09-09T04:21:57;11.98;;;4.22;;
37655;SDS011;23498;50.958;3.124;2022-09-09T04:24:23;12.75;;;3.50;;
37655;SDS011;23498;50.958;3.124;2022-09-09T04:26:52;11.43;;;3.28;;
37655;SDS011;23498;50.958;3.124;2022-09-09T04:29:18;14.32;;;4.10;;
37655;SDS011;23498;50.958;3.124;2022-09-09T04:31:44;14.88;;;3.80;;
37655;SDS011;23498;50.958;3.124;2022-09-09T04:34:10;14.43;;;3.65;;
37655;SDS011;23498;50.958;3.124;2022-09-09T04:36:36;11.88;;;3.78;;
37655;SDS011;23498;50.958;3.124;2022-09-09T04:39:05;10.93;;;3.75;;
37655;SDS011;23498;50.958;3.124;2022-09-09T04:41:31;16.23;;;4.70;;
37655;SDS011;23498;50.958;3.124;2022-09-09T04:43:57;13.25;;;3.95;;
37655;SDS011;23498;50.958;3.124;2022-09-09T04:46:24;11.65;;;3.45;;
37655;SDS011;23498;50.958;3.124;2022-09-09T04:48:50;14.70;;;4.43;;
37655;SDS011;23498;50.958;3.124;2022-09-09T04:51:17;11.85;;;4.20;;
37655;SDS011;23498;50.958;3.124;2022-09-09T04:53:44;17.33;;;4.38;;
37655;SDS011;23498;50.958;3.124;2022-09-09T04:56:15;15.02;;;3.97;;
37655;SDS011;23498;50.958;3.124;2022-09-09T04:58:41;14.77;;;3.70;;
37655;SDS011;23498;50.958;3.124;2022-09-09T05:01:12;16.75;;;4.35;;
37655;SDS011;23498;50.958;3.124;2022-09-09T05:03:38;10.70;;;3.90;;
37655;SDS011;23498;50.958;3.124;2022-09-09T05:06:08;14.90;;;3.95;;
37655;SDS011;23498;50.958;3.124;2022-09-09T05:08:36;17.55;;;4.97;;
37655;SDS011;23498;50.958;3.124;2022-09-09T05:11:02;15.15;;;4.00;;
37655;SDS011;23498;50.958;3.124;2022-09-09T05:13:28;15.90;;;4.25;;
37655;SDS011;23498;50.958;3.124;2022-09-09T05:15:57;16.33;;;4.15;;
37655;SDS011;23498;50.958;3.124;2022-09-09T05:18:23;13.57;;;4.35;;
37655;SDS011;23498;50.958;3.124;2022-09-09T05:20:49;13.60;;;4.10;;
37655;SDS011;23498;50.958;3.124;2022-09-09T05:23:16;13.23;;;4.32;;
37655;SDS011;23498;50.958;3.124;2022-09-09T05:25:42;13.02;;;4.10;;
37655;SDS011;23498;50.958;3.124;2022-09-09T05:28:08;11.38;;;4.20;;
37655;SDS011;23498;50.958;3.124;2022-09-09T05:30:34;16.27;;;4.63;;
37655;SDS011;23498;50.958;3.124;2022-09-09T05:33:00;19.80;;;5.20;;
37655;SDS011;23498;50.958;3.124;2022-09-09T05:35:26;17.65;;;4.45;;
37655;SDS011;23498;50.958;3.124;2022-09-09T05:37:52;16.25;;;4.82;;
37655;SDS011;23498;50.958;3.124;2022-09-09T05:40:19;13.77;;;5.32;;
37655;SDS011;23498;50.958;3.124;2022-09-09T05:42:46;17.77;;;5.10;;
37655;SDS011;23498;50.958;3.124;2022-09-09T05:45:12;19.98;;;4.70;;
37655;SDS011;23498;50.958;3.124;2022-09-09T05:47:38;10.82;;;4.00;;
37655;SDS011;23498;50.958;3.124;2022-09-09T05:50:04;17.35;;;5.43;;
37655;SDS011;23498;50.958;3.124;2022-09-09T05:52:30;13.85;;;5.05;;
37655;SDS011;23498;50.958;3.124;2022-09-09T05:54:56;16.92;;;5.35;;
37655;SDS011;23498;50.958;3.124;2022-09-09T05:57:24;13.75;;;4.50;;
37655;SDS011;23498;50.958;3.124;2022-09-09T05:59:50;15.15;;;5.20;;
37655;SDS011;23498;50.958;3.124;2022-09-09T06:02:16;19.90;;;5.20;;
37655;SDS011;23498;50.958;3.124;2022-09-09T06:04:42;15.50;;;4.63;;
37655;SDS011;23498;50.958;3.124;2022-09-09T06:07:08;14.80;;;4.53;;
37655;SDS011;23498;50.958;3.124;2022-09-09T06:09:34;15.30;;;4.72;;
37655;SDS011;23498;50.958;3.124;2022-09-09T06:12:00;14.82;;;4.15;;
37655;SDS011;23498;50.958;3.124;2022-09-09T06:14:26;13.43;;;4.40;;
37655;SDS011;23498;50.958;3.124;2022-09-09T06:16:52;15.15;;;4.63;;
37655;SDS011;23498;50.958;3.124;2022-09-09T06:19:18;16.60;;;4.72;;
37655;SDS011;23498;50.958;3.124;2022-09-09T06:21:45;16.77;;;5.13;;
37655;SDS011;23498;50.958;3.124;2022-09-09T06:24:12;20.08;;;5.25;;
37655;SDS011;23498;50.958;3.124;2022-09-09T06:26:42;13.43;;;5.00;;
37655;SDS011;23498;50.958;3.124;2022-09-09T06:29:08;14.20;;;4.90;;
37655;SDS011;23498;50.958;3.124;2022-09-09T06:31:35;11.88;;;4.88;;
37655;SDS011;23498;50.958;3.124;2022-09-09T06:34:02;11.98;;;4.32;;
37655;SDS011;23498;50.958;3.124;2022-09-09T06:36:30;16.70;;;4.93;;
37655;SDS011;23498;50.958;3.124;2022-09-09T06:38:57;16.40;;;4.50;;
37655;SDS011;23498;50.958;3.124;2022-09-09T06:41:26;20.63;;;5.05;;
37655;SDS011;23498;50.958;3.124;2022-09-09T06:43:52;14.02;;;4.57;;
37655;SDS011;23498;50.958;3.124;2022-09-09T06:46:22;13.40;;;4.90;;
37655;SDS011;23498;50.958;3.124;2022-09-09T06:48:48;19.38;;;5.00;;
37655;SDS011;23498;50.958;3.124;2022-09-09T06:51:19;17.85;;;5.07;;
37655;SDS011;23498;50.958;3.124;2022-09-09T06:53:52;20.25;;;5.30;;
37655;SDS011;23498;50.958;3.124;2022-09-09T06:56:25;18.25;;;5.82;;
37655;SDS011;23498;50.958;3.124;2022-09-09T06:58:53;21.05;;;5.43;;
37655;SDS011;23498;50.958;3.124;2022-09-09T07:01:20;17.27;;;5.55;;
37655;SDS011;23498;50.958;3.124;2022-09-09T07:03:50;12.57;;;5.20;;
37655;SDS011;23498;50.958;3.124;2022-09-09T07:06:18;17.20;;;5.18;;
37655;SDS011;23498;50.958;3.124;2022-09-09T07:08:47;14.32;;;4.97;;
37655;SDS011;23498;50.958;3.124;2022-09-09T07:11:13;17.30;;;5.93;;
37655;SDS011;23498;50.958;3.124;2022-09-09T07:13:39;19.60;;;5.75;;
37655;SDS011;23498;50.958;3.124;2022-09-09T07:16:08;22.50;;;6.00;;
37655;SDS011;23498;50.958;3.124;2022-09-09T07:18:34;15.18;;;5.40;;
37655;SDS011;23498;50.958;3.124;2022-09-09T07:21:00;13.52;;;5.35;;
37655;SDS011;23498;50.958;3.124;2022-09-09T07:23:27;17.92;;;5.40;;
37655;SDS011;23498;50.958;3.124;2022-09-09T07:25:53;15.95;;;5.05;;
37655;SDS011;23498;50.958;3.124;2022-09-09T07:28:20;15.32;;;5.70;;
37655;SDS011;23498;50.958;3.124;2022-09-09T07:30:53;17.35;;;4.78;;
37655;SDS011;23498;50.958;3.124;2022-09-09T07:33:19;18.63;;;4.93;;
37655;SDS011;23498;50.958;3.124;2022-09-09T07:35:46;14.02;;;5.40;;
37655;SDS011;23498;50.958;3.124;2022-09-09T07:38:12;17.88;;;5.07;;
37655;SDS011;23498;50.958;3.124;2022-09-09T07:40:38;14.73;;;6.03;;
37655;SDS011;23498;50.958;3.124;2022-09-09T07:43:04;13.20;;;5.00;;
37655;SDS011;23498;50.958;3.124;2022-09-09T07:45:30;12.95;;;5.00;;
37655;SDS011;23498;50.958;3.124;2022-09-09T07:47:57;15.27;;;5.05;;
37655;SDS011;23498;50.958;3.124;2022-09-09T07:50:23;14.85;;;4.80;;
37655;SDS011;23498;50.958;3.124;2022-09-09T07:52:50;8.95;;;4.22;;
37655;SDS011;23498;50.958;3.124;2022-09-09T07:55:17;14.00;;;4.97;;
37655;SDS011;23498;50.958;3.124;2022-09-09T07:57:43;11.48;;;4.68;;
37655;SDS011;23498;50.958;3.124;2022-09-09T08:00:09;10.95;;;4.70;;
37655;SDS011;23498;50.958;3.124;2022-09-09T08:02:35;10.63;;;4.63;;
37655;SDS011;23498;50.958;3.124;2022-09-09T08:05:02;14.18;;;5.00;;
37655;SDS011;23498;50.958;3.124;2022-09-09T08:07:28;9.85;;;4.45;;
37655;SDS011;23498;50.958;3.124;2022-09-09T08:09:54;10.98;;;4.28;;
37655;SDS011;23498;50.958;3.124;2022-09-09T08:12:20;8.02;;;4.32;;
37655;SDS011;23498;50.958;3.124;2022-09-09T08:14:47;12.00;;;4.75;;
37655;SDS011;23498;50.958;3.124;2022-09-09T08:17:13;11.23;;;4.35;;
37655;SDS011;23498;50.958;3.124;2022-09-09T08:19:39;12.00;;;4.15;;
37655;SDS011;23498;50.958;3.124;2022-09-09T08:22:05;10.73;;;4.20;;
37655;SDS011;23498;50.958;3.124;2022-09-09T08:24:32;9.55;;;3.78;;
37655;SDS011;23498;50.958;3.124;2022-09-09T08:26:58;9.68;;;4.15;;
37655;SDS011;23498;50.958;3.124;2022-09-09T08:29:24;13.02;;;3.85;;
37655;SDS011;23498;50.958;3.124;2022-09-09T08:31:51;13.20;;;4.13;;
37655;SDS011;23498;50.958;3.124;2022-09-09T08:34:19;9.27;;;4.00;;
37655;SDS011;23498;50.958;3.124;2022-09-09T08:36:46;9.15;;;4.32;;
37655;SDS011;23498;50.958;3.124;2022-09-09T08:39:13;10.32;;;3.42;;
37655;SDS011;23498;50.958;3.124;2022-09-09T08:46:42;8.60;;;3.05;;
37655;SDS011;23498;50.958;3.124;2022-09-09T08:51:54;8.02;;;3.30;;
37655;SDS011;23498;50.958;3.124;2022-09-09T08:54:22;9.35;;;3.50;;
37655;SDS011;23498;50.958;3.124;2022-09-09T08:56:48;7.57;;;2.85;;
37655;SDS011;23498;50.958;3.124;2022-09-09T08:59:15;5.90;;;2.67;;
37655;SDS011;23498;50.958;3.124;2022-09-09T09:07:19;4.03;;;1.70;;
37655;SDS011;23498;50.958;3.124;2022-09-09T09:12:24;5.65;;;2.00;;
37655;SDS011;23498;50.958;3.124;2022-09-09T09:14:51;6.03;;;1.83;;
37655;SDS011;23498;50.958;3.124;2022-09-09T09:17:18;5.47;;;2.25;;
37655;SDS011;23498;50.958;3.124;2022-09-09T09:19:45;6.57;;;2.10;;
37655;SDS011;23498;50.958;3.124;2022-09-09T09:22:21;9.20;;;2.25;;
37655;SDS011;23498;50.958;3.124;2022-09-09T09:27:40;6.05;;;2.13;;
37655;SDS011;23498;50.958;3.124;2022-09-09T09:32:38;5.43;;;1.83;;
37655;SDS011;23498;50.958;3.124;2022-09-09T09:35:06;7.43;;;2.20;;
37655;SDS011;23498;50.958;3.124;2022-09-09T09:37:37;5.22;;;2.00;;
37655;SDS011;23498;50.958;3.124;2022-09-09T09:40:10;3.50;;;1.33;;
37655;SDS011;23498;50.958;3.124;2022-09-09T09:42:37;5.40;;;1.90;;
37655;SDS011;23498;50.958;3.124;2022-09-09T09:48:03;4.40;;;1.90;;
37655;SDS011;23498;50.958;3.124;2022-09-09T09:50:30;5.85;;;2.05;;
37655;SDS011;23498;50.958;3.124;2022-09-09T09:52:57;3.47;;;1.42;;
37655;SDS011;23498;50.958;3.124;2022-09-09T09:55:24;3.35;;;1.50;;
37655;SDS011;23498;50.958;3.124;2022-09-09T09:57:50;6.95;;;1.70;;
37655;SDS011;23498;50.958;3.124;2022-09-09T10:00:19;4.75;;;1.77;;
37655;SDS011;23498;50.958;3.124;2022-09-09T10:02:46;6.22;;;1.45;;
37655;SDS011;23498;50.958;3.124;2022-09-09T10:05:17;5.32;;;1.60;;
37655;SDS011;23498;50.958;3.124;2022-09-09T10:07:45;4.15;;;1.50;;
37655;SDS011;23498;50.958;3.124;2022-09-09T10:10:21;4.30;;;1.52;;
37655;SDS011;23498;50.958;3.124;2022-09-09T10:15:29;6.00;;;1.48;;
37655;SDS011;23498;50.958;3.124;2022-09-09T10:28:12;5.28;;;1.52;;
37655;SDS011;23498;50.958;3.124;2022-09-09T10:30:47;3.22;;;1.27;;
37655;SDS011;23498;50.958;3.124;2022-09-09T10:33:21;3.00;;;1.55;;
37655;SDS011;23498;50.958;3.124;2022-09-09T10:41:11;6.25;;;1.60;;
37655;SDS011;23498;50.958;3.124;2022-09-09T10:46:27;4.97;;;1.88;;
37655;SDS011;23498;50.958;3.124;2022-09-09T10:56:18;3.75;;;1.40;;
37655;SDS011;23498;50.958;3.124;2022-09-09T10:58:56;6.65;;;1.67;;
37655;SDS011;23498;50.958;3.124;2022-09-09T11:01:32;5.82;;;1.70;;
37655;SDS011;23498;50.958;3.124;2022-09-09T11:06:50;3.65;;;1.13;;
37655;SDS011;23498;50.958;3.124;2022-09-09T11:09:19;6.00;;;1.30;;
37655;SDS011;23498;50.958;3.124;2022-09-09T11:11:53;4.65;;;1.27;;
37655;SDS011;23498;50.958;3.124;2022-09-09T11:14:30;3.78;;;1.15;;
37655;SDS011;23498;50.958;3.124;2022-09-09T11:17:06;4.30;;;1.30;;
37655;SDS011;23498;50.958;3.124;2022-09-09T11:19:35;7.65;;;1.58;;
37655;SDS011;23498;50.958;3.124;2022-09-09T11:22:03;4.95;;;1.60;;
37655;SDS011;23498;50.958;3.124;2022-09-09T11:24:38;5.10;;;1.30;;
37655;SDS011;23498;50.958;3.124;2022-09-09T11:44:37;5.28;;;1.60;;
37655;SDS011;23498;50.958;3.124;2022-09-09T11:47:14;6.68;;;1.73;;
37655;SDS011;23498;50.958;3.124;2022-09-09T11:49:42;6.68;;;1.80;;
37655;SDS011;23498;50.958;3.124;2022-09-09T11:54:50;5.78;;;1.77;;
37655;SDS011;23498;50.958;3.124;2022-09-09T11:57:27;6.97;;;2.20;;
37655;SDS011;23498;50.958;3.124;2022-09-09T11:59:56;6.22;;;2.17;;
37655;SDS011;23498;50.958;3.124;2022-09-09T12:02:26;7.45;;;2.50;;
37655;SDS011;23498;50.958;3.124;2022-09-09T12:07:33;8.70;;;2.90;;
37655;SDS011;23498;50.958;3.124;2022-09-09T12:12:30;14.27;;;3.80;;
37655;SDS011;23498;50.958;3.124;2022-09-09T12:15:01;9.03;;;3.33;;
37655;SDS011;23498;50.958;3.124;2022-09-09T12:17:28;10.52;;;3.50;;
37655;SDS011;23498;50.958;3.124;2022-09-09T12:20:11;6.63;;;3.40;;
37655;SDS011;23498;50.958;3.124;2022-09-09T12:30:48;8.73;;;3.95;;
37655;SDS011;23498;50.958;3.124;2022-09-09T12:33:18;7.80;;;3.40;;
37655;SDS011;23498;50.958;3.124;2022-09-09T12:35:45;9.70;;;3.70;;
37655;SDS011;23498;50.958;3.124;2022-09-09T12:38:16;6.72;;;3.13;;
37655;SDS011;23498;50.958;3.124;2022-09-09T12:40:53;6.18;;;2.85;;
37655;SDS011;23498;50.958;3.124;2022-09-09T12:43:20;14.57;;;4.00;;
37655;SDS011;23498;50.958;3.124;2022-09-09T12:45:47;9.50;;;3.70;;
37655;SDS011;23498;50.958;3.124;2022-09-09T12:48:15;8.00;;;3.20;;
37655;SDS011;23498;50.958;3.124;2022-09-09T12:50:43;6.53;;;3.25;;
37655;SDS011;23498;50.958;3.124;2022-09-09T12:53:12;9.38;;;3.33;;
37655;SDS011;23498;50.958;3.124;2022-09-09T12:55:48;6.40;;;2.67;;
37655;SDS011;23498;50.958;3.124;2022-09-09T12:58:14;6.53;;;3.10;;
37655;SDS011;23498;50.958;3.124;2022-09-09T13:00:48;7.93;;;2.70;;
37655;SDS011;23498;50.958;3.124;2022-09-09T13:03:17;7.30;;;2.38;;
37655;SDS011;23498;50.958;3.124;2022-09-09T13:05:43;7.47;;;2.58;;
37655;SDS011;23498;50.958;3.124;2022-09-09T13:08:12;4.75;;;2.30;;
37655;SDS011;23498;50.958;3.124;2022-09-09T13:13:14;8.27;;;2.65;;
37655;SDS011;23498;50.958;3.124;2022-09-09T13:15:47;7.47;;;2.50;;
37655;SDS011;23498;50.958;3.124;2022-09-09T13:18:14;6.53;;;2.75;;
37655;SDS011;23498;50.958;3.124;2022-09-09T13:20:45;8.38;;;2.58;;
37655;SDS011;23498;50.958;3.124;2022-09-09T13:23:11;9.60;;;2.60;;
37655;SDS011;23498;50.958;3.124;2022-09-09T13:25:38;6.28;;;3.10;;
37655;SDS011;23498;50.958;3.124;2022-09-09T13:28:05;7.30;;;2.50;;
37655;SDS011;23498;50.958;3.124;2022-09-09T13:30:32;10.52;;;3.17;;
37655;SDS011;23498;50.958;3.124;2022-09-09T13:35:54;6.63;;;2.55;;
37655;SDS011;23498;50.958;3.124;2022-09-09T13:38:20;4.47;;;2.00;;
37655;SDS011;23498;50.958;3.124;2022-09-09T13:41:00;5.68;;;1.85;;
37655;SDS011;23498;50.958;3.124;2022-09-09T13:43:30;4.75;;;2.10;;
37655;SDS011;23498;50.958;3.124;2022-09-09T13:46:00;6.18;;;1.80;;
37655;SDS011;23498;50.958;3.124;2022-09-09T13:48:27;5.25;;;1.80;;
37655;SDS011;23498;50.958;3.124;2022-09-09T13:50:58;3.45;;;1.40;;
37655;SDS011;23498;50.958;3.124;2022-09-09T13:53:25;5.78;;;1.90;;
37655;SDS011;23498;50.958;3.124;2022-09-09T13:55:51;6.10;;;1.83;;
37655;SDS011;23498;50.958;3.124;2022-09-09T13:58:17;5.28;;;1.75;;
37655;SDS011;23498;50.958;3.124;2022-09-09T14:00:44;4.53;;;1.35;;
37655;SDS011;23498;50.958;3.124;2022-09-09T14:03:10;4.93;;;1.52;;
37655;SDS011;23498;50.958;3.124;2022-09-09T14:05:36;3.83;;;1.20;;
37655;SDS011;23498;50.958;3.124;2022-09-09T14:08:06;3.47;;;1.20;;
37655;SDS011;23498;50.958;3.124;2022-09-09T14:10:32;4.05;;;1.20;;
37655;SDS011;23498;50.958;3.124;2022-09-09T14:13:02;5.05;;;1.25;;
37655;SDS011;23498;50.958;3.124;2022-09-09T14:15:28;3.88;;;1.20;;
37655;SDS011;23498;50.958;3.124;2022-09-09T14:17:54;3.35;;;0.90;;
37655;SDS011;23498;50.958;3.124;2022-09-09T14:20:20;4.65;;;1.30;;
37655;SDS011;23498;50.958;3.124;2022-09-09T14:22:46;3.50;;;1.05;;
37655;SDS011;23498;50.958;3.124;2022-09-09T14:25:12;3.25;;;1.00;;
37655;SDS011;23498;50.958;3.124;2022-09-09T14:27:38;5.68;;;1.30;;
37655;SDS011;23498;50.958;3.124;2022-09-09T14:30:05;2.80;;;0.95;;
37655;SDS011;23498;50.958;3.124;2022-09-09T14:32:31;5.95;;;1.35;;
37655;SDS011;23498;50.958;3.124;2022-09-09T14:34:58;3.45;;;1.00;;
37655;SDS011;23498;50.958;3.124;2022-09-09T14:37:24;3.88;;;1.20;;
37655;SDS011;23498;50.958;3.124;2022-09-09T14:39:50;3.05;;;1.05;;
37655;SDS011;23498;50.958;3.124;2022-09-09T14:42:16;4.93;;;1.38;;
37655;SDS011;23498;50.958;3.124;2022-09-09T14:44:42;4.85;;;1.20;;
37655;SDS011;23498;50.958;3.124;2022-09-09T14:47:08;4.35;;;1.17;;
37655;SDS011;23498;50.958;3.124;2022-09-09T14:49:35;4.72;;;1.10;;
37655;SDS011;23498;50.958;3.124;2022-09-09T14:52:02;5.03;;;1.30;;
37655;SDS011;23498;50.958;3.124;2022-09-09T14:54:28;3.42;;;1.38;;
37655;SDS011;23498;50.958;3.124;2022-09-09T14:56:55;4.68;;;1.52;;
37655;SDS011;23498;50.958;3.124;2022-09-09T14:59:21;3.13;;;1.50;;
37655;SDS011;23498;50.958;3.124;2022-09-09T15:01:47;4.13;;;1.50;;
37655;SDS011;23498;50.958;3.124;2022-09-09T15:04:15;4.78;;;1.75;;
37655;SDS011;23498;50.958;3.124;2022-09-09T15:06:41;3.75;;;1.50;;
37655;SDS011;23498;50.958;3.124;2022-09-09T15:09:09;3.50;;;1.63;;
37655;SDS011;23498;50.958;3.124;2022-09-09T15:11:36;7.00;;;2.30;;
37655;SDS011;23498;50.958;3.124;2022-09-09T15:14:03;6.63;;;2.33;;
37655;SDS011;23498;50.958;3.124;2022-09-09T15:16:29;6.05;;;2.60;;
37655;SDS011;23498;50.958;3.124;2022-09-09T15:18:57;9.00;;;3.42;;
37655;SDS011;23498;50.958;3.124;2022-09-09T15:21:24;7.65;;;3.45;;
37655;SDS011;23498;50.958;3.124;2022-09-09T15:23:51;8.60;;;3.80;;
37655;SDS011;23498;50.958;3.124;2022-09-09T15:26:17;6.80;;;3.35;;
37655;SDS011;23498;50.958;3.124;2022-09-09T15:28:44;8.20;;;3.50;;
37655;SDS011;23498;50.958;3.124;2022-09-09T15:31:13;8.13;;;3.67;;
37655;SDS011;23498;50.958;3.124;2022-09-09T15:33:39;7.07;;;3.20;;
37655;SDS011;23498;50.958;3.124;2022-09-09T15:36:39;7.75;;;3.30;;
37655;SDS011;23498;50.958;3.124;2022-09-09T15:38:58;6.72;;;3.42;;
37655;SDS011;23498;50.958;3.124;2022-09-09T15:41:25;6.18;;;3.10;;
37655;SDS011;23498;50.958;3.124;2022-09-09T15:43:52;7.60;;;3.10;;
37655;SDS011;23498;50.958;3.124;2022-09-09T15:46:24;8.77;;;3.22;;
37655;SDS011;23498;50.958;3.124;2022-09-09T15:48:54;5.93;;;2.85;;
37655;SDS011;23498;50.958;3.124;2022-09-09T15:51:21;5.95;;;2.75;;
37655;SDS011;23498;50.958;3.124;2022-09-09T15:53:48;4.88;;;2.47;;
37655;SDS011;23498;50.958;3.124;2022-09-09T15:56:14;6.65;;;2.50;;
37655;SDS011;23498;50.958;3.124;2022-09-09T15:58:40;5.07;;;2.10;;
37655;SDS011;23498;50.958;3.124;2022-09-09T16:01:09;5.07;;;2.10;;
37655;SDS011;23498;50.958;3.124;2022-09-09T16:03:37;4.68;;;1.80;;
37655;SDS011;23498;50.958;3.124;2022-09-09T16:06:04;6.40;;;2.15;;
37655;SDS011;23498;50.958;3.124;2022-09-09T16:08:31;7.80;;;2.13;;
37655;SDS011;23498;50.958;3.124;2022-09-09T16:11:03;4.82;;;2.25;;
37655;SDS011;23498;50.958;3.124;2022-09-09T16:13:32;8.10;;;2.05;;
37655;SDS011;23498;50.958;3.124;2022-09-09T16:15:58;5.28;;;1.77;;
37655;SDS011;23498;50.958;3.124;2022-09-09T16:18:24;6.22;;;1.40;;
37655;SDS011;23498;50.958;3.124;2022-09-09T16:20:54;4.30;;;1.25;;
37655;SDS011;23498;50.958;3.124;2022-09-09T16:23:20;8.02;;;1.60;;
37655;SDS011;23498;50.958;3.124;2022-09-09T16:25:55;6.03;;;1.35;;
37655;SDS011;23498;50.958;3.124;2022-09-09T16:28:21;5.90;;;1.35;;
37655;SDS011;23498;50.958;3.124;2022-09-09T16:30:48;7.63;;;1.98;;
37655;SDS011;23498;50.958;3.124;2022-09-09T16:33:14;7.93;;;1.40;;
37655;SDS011;23498;50.958;3.124;2022-09-09T16:35:41;6.03;;;1.77;;
37655;SDS011;23498;50.958;3.124;2022-09-09T16:38:07;5.85;;;1.45;;
37655;SDS011;23498;50.958;3.124;2022-09-09T16:40:33;6.55;;;1.40;;
37655;SDS011;23498;50.958;3.124;2022-09-09T16:43:00;7.32;;;1.48;;
37655;SDS011;23498;50.958;3.124;2022-09-09T16:45:26;8.40;;;1.80;;
37655;SDS011;23498;50.958;3.124;2022-09-09T16:47:52;6.40;;;1.50;;
37655;SDS011;23498;50.958;3.124;2022-09-09T16:50:19;8.38;;;1.60;;
37655;SDS011;23498;50.958;3.124;2022-09-09T16:52:45;4.43;;;1.30;;
37655;SDS011;23498;50.958;3.124;2022-09-09T16:55:11;5.07;;;1.30;;
37655;SDS011;23498;50.958;3.124;2022-09-09T16:57:37;6.15;;;1.55;;
37655;SDS011;23498;50.958;3.124;2022-09-09T17:00:03;6.88;;;1.75;;
37655;SDS011;23498;50.958;3.124;2022-09-09T17:02:31;6.57;;;1.42;;
37655;SDS011;23498;50.958;3.124;2022-09-09T17:04:58;6.65;;;1.33;;